sensor_id;sensor_type;location;lat;lon;timestamp;P1;durP1;ratioP1;P2;durP2;ratioP2
7154;SDS011;3619;53.784;10.440;2023-01-29T00:01:30;10.37;;;9.97;;
7154;SDS011;3619;53.784;10.440;2023-01-29T00:03:58;9.70;;;9.30;;
7154;SDS011;3619;53.784;10.440;2023-01-29T00:06:25;9.00;;;8.70;;
7154;SDS011;3619;53.784;10.440;2023-01-29T00:08:52;8.93;;;8.63;;
7154;SDS011;3619;53.784;10.440;2023-01-29T00:11:18;10.47;;;10.07;;
7154;SDS011;3619;53.784;10.440;2023-01-29T00:13:45;10.10;;;9.70;;
7154;SDS011;3619;53.784;10.440;2023-01-29T00:16:12;9.80;;;9.40;;
7154;SDS011;3619;53.784;10.440;2023-01-29T00:18:39;9.20;;;8.90;;
7154;SDS011;3619;53.784;10.440;2023-01-29T00:21:11;10.27;;;9.87;;
7154;SDS011;3619;53.784;10.440;2023-01-29T00:23:39;9.30;;;9.00;;
7154;SDS011;3619;53.784;10.440;2023-01-29T00:26:06;8.87;;;8.57;;
7154;SDS011;3619;53.784;10.440;2023-01-29T00:28:33;10.13;;;9.73;;
7154;SDS011;3619;53.784;10.440;2023-01-29T00:31:05;9.53;;;9.17;;
7154;SDS011;3619;53.784;10.440;2023-01-29T00:33:34;9.37;;;9.03;;
7154;SDS011;3619;53.784;10.440;2023-01-29T00:36:02;10.13;;;9.73;;
7154;SDS011;3619;53.784;10.440;2023-01-29T00:38:31;9.37;;;9.07;;
7154;SDS011;3619;53.784;10.440;2023-01-29T00:41:04;11.53;;;11.13;;
7154;SDS011;3619;53.784;10.440;2023-01-29T00:43:48;10.87;;;10.47;;
7154;SDS011;3619;53.784;10.440;2023-01-29T00:46:34;9.97;;;9.57;;
7154;SDS011;3619;53.784;10.440;2023-01-29T00:49:01;11.87;;;11.47;;
7154;SDS011;3619;53.784;10.440;2023-01-29T00:51:29;10.57;;;10.17;;
7154;SDS011;3619;53.784;10.440;2023-01-29T00:53:57;10.77;;;10.37;;
7154;SDS011;3619;53.784;10.440;2023-01-29T00:56:24;10.80;;;10.40;;
7154;SDS011;3619;53.784;10.440;2023-01-29T00:58:51;10.93;;;10.53;;
7154;SDS011;3619;53.784;10.440;2023-01-29T01:01:18;9.97;;;9.57;;
7154;SDS011;3619;53.784;10.440;2023-01-29T01:04:06;10.10;;;9.70;;
7154;SDS011;3619;53.784;10.440;2023-01-29T01:06:32;10.53;;;10.13;;
7154;SDS011;3619;53.784;10.440;2023-01-29T01:09:03;11.83;;;11.43;;
7154;SDS011;3619;53.784;10.440;2023-01-29T01:11:47;10.80;;;10.40;;
7154;SDS011;3619;53.784;10.440;2023-01-29T01:14:15;11.33;;;10.93;;
7154;SDS011;3619;53.784;10.440;2023-01-29T01:16:43;10.53;;;10.13;;
7154;SDS011;3619;53.784;10.440;2023-01-29T01:19:10;12.10;;;11.67;;
7154;SDS011;3619;53.784;10.440;2023-01-29T01:21:37;10.73;;;10.33;;
7154;SDS011;3619;53.784;10.440;2023-01-29T01:24:06;9.47;;;9.17;;
7154;SDS011;3619;53.784;10.440;2023-01-29T01:26:33;9.03;;;8.73;;
7154;SDS011;3619;53.784;10.440;2023-01-29T01:29:00;8.27;;;7.97;;
7154;SDS011;3619;53.784;10.440;2023-01-29T01:31:26;9.73;;;9.33;;
7154;SDS011;3619;53.784;10.440;2023-01-29T01:33:53;8.97;;;8.67;;
7154;SDS011;3619;53.784;10.440;2023-01-29T01:36:20;8.20;;;7.90;;
7154;SDS011;3619;53.784;10.440;2023-01-29T01:38:47;8.57;;;8.27;;
7154;SDS011;3619;53.784;10.440;2023-01-29T01:41:17;8.50;;;8.20;;
7154;SDS011;3619;53.784;10.440;2023-01-29T01:43:50;7.97;;;7.67;;
7154;SDS011;3619;53.784;10.440;2023-01-29T01:46:20;7.70;;;7.40;;
7154;SDS011;3619;53.784;10.440;2023-01-29T01:48:47;9.93;;;9.53;;
7154;SDS011;3619;53.784;10.440;2023-01-29T01:51:18;7.57;;;7.27;;
7154;SDS011;3619;53.784;10.440;2023-01-29T01:53:50;9.33;;;9.03;;
7154;SDS011;3619;53.784;10.440;2023-01-29T01:56:23;7.63;;;7.33;;
7154;SDS011;3619;53.784;10.440;2023-01-29T01:59:02;8.40;;;8.10;;
7154;SDS011;3619;53.784;10.440;2023-01-29T02:01:32;9.67;;;9.27;;
7154;SDS011;3619;53.784;10.440;2023-01-29T02:04:00;8.73;;;8.43;;
7154;SDS011;3619;53.784;10.440;2023-01-29T02:06:47;7.73;;;7.43;;
7154;SDS011;3619;53.784;10.440;2023-01-29T02:09:34;7.87;;;7.57;;
7154;SDS011;3619;53.784;10.440;2023-01-29T02:12:07;6.70;;;6.50;;
7154;SDS011;3619;53.784;10.440;2023-01-29T02:14:38;7.40;;;7.10;;
7154;SDS011;3619;53.784;10.440;2023-01-29T02:17:07;6.80;;;6.60;;
7154;SDS011;3619;53.784;10.440;2023-01-29T02:19:38;8.67;;;8.37;;
7154;SDS011;3619;53.784;10.440;2023-01-29T02:28:31;7.30;;;7.00;;
7154;SDS011;3619;53.784;10.440;2023-01-29T02:31:06;6.87;;;6.67;;
7154;SDS011;3619;53.784;10.440;2023-01-29T02:33:40;6.73;;;6.53;;
7154;SDS011;3619;53.784;10.440;2023-01-29T02:36:18;6.67;;;6.47;;
7154;SDS011;3619;53.784;10.440;2023-01-29T02:38:54;6.57;;;6.37;;
7154;SDS011;3619;53.784;10.440;2023-01-29T02:41:27;6.70;;;6.50;;
7154;SDS011;3619;53.784;10.440;2023-01-29T02:44:02;7.37;;;7.07;;
7154;SDS011;3619;53.784;10.440;2023-01-29T02:46:37;5.93;;;5.73;;
7154;SDS011;3619;53.784;10.440;2023-01-29T02:49:10;6.53;;;6.33;;
7154;SDS011;3619;53.784;10.440;2023-01-29T02:51:45;6.03;;;5.83;;
7154;SDS011;3619;53.784;10.440;2023-01-29T02:54:20;7.47;;;7.17;;
7154;SDS011;3619;53.784;10.440;2023-01-29T02:56:54;7.37;;;7.07;;
7154;SDS011;3619;53.784;10.440;2023-01-29T02:59:26;6.60;;;6.40;;
7154;SDS011;3619;53.784;10.440;2023-01-29T03:01:58;5.77;;;5.57;;
7154;SDS011;3619;53.784;10.440;2023-01-29T03:04:32;6.33;;;6.13;;
7154;SDS011;3619;53.784;10.440;2023-01-29T03:07:08;6.23;;;6.03;;
7154;SDS011;3619;53.784;10.440;2023-01-29T03:10:02;7.70;;;7.40;;
7154;SDS011;3619;53.784;10.440;2023-01-29T03:12:31;6.40;;;6.20;;
7154;SDS011;3619;53.784;10.440;2023-01-29T03:15:06;6.80;;;6.60;;
7154;SDS011;3619;53.784;10.440;2023-01-29T03:17:41;6.57;;;6.37;;
7154;SDS011;3619;53.784;10.440;2023-01-29T03:20:12;6.27;;;6.07;;
7154;SDS011;3619;53.784;10.440;2023-01-29T03:22:44;7.07;;;6.77;;
7154;SDS011;3619;53.784;10.440;2023-01-29T03:25:16;5.50;;;5.30;;
7154;SDS011;3619;53.784;10.440;2023-01-29T03:28:02;6.70;;;6.47;;
7154;SDS011;3619;53.784;10.440;2023-01-29T03:30:49;5.93;;;5.73;;
7154;SDS011;3619;53.784;10.440;2023-01-29T03:33:38;6.97;;;6.73;;
7154;SDS011;3619;53.784;10.440;2023-01-29T03:36:10;6.63;;;6.43;;
7154;SDS011;3619;53.784;10.440;2023-01-29T03:38:41;6.03;;;5.83;;
7154;SDS011;3619;53.784;10.440;2023-01-29T03:41:09;6.73;;;6.53;;
7154;SDS011;3619;53.784;10.440;2023-01-29T03:43:46;6.53;;;6.33;;
7154;SDS011;3619;53.784;10.440;2023-01-29T03:46:22;5.70;;;5.50;;
7154;SDS011;3619;53.784;10.440;2023-01-29T03:48:57;6.50;;;6.30;;
7154;SDS011;3619;53.784;10.440;2023-01-29T03:51:33;5.60;;;5.40;;
7154;SDS011;3619;53.784;10.440;2023-01-29T03:54:04;5.43;;;5.23;;
7154;SDS011;3619;53.784;10.440;2023-01-29T03:56:41;5.50;;;5.30;;
7154;SDS011;3619;53.784;10.440;2023-01-29T03:59:20;4.70;;;4.50;;
7154;SDS011;3619;53.784;10.440;2023-01-29T04:02:05;5.90;;;5.70;;
7154;SDS011;3619;53.784;10.440;2023-01-29T04:04:38;5.33;;;5.13;;
7154;SDS011;3619;53.784;10.440;2023-01-29T04:07:07;5.90;;;5.70;;
7154;SDS011;3619;53.784;10.440;2023-01-29T04:09:39;5.73;;;5.53;;
7154;SDS011;3619;53.784;10.440;2023-01-29T04:12:12;6.10;;;5.90;;
7154;SDS011;3619;53.784;10.440;2023-01-29T04:14:43;7.80;;;7.50;;
7154;SDS011;3619;53.784;10.440;2023-01-29T04:17:13;5.47;;;5.27;;
7154;SDS011;3619;53.784;10.440;2023-01-29T04:19:44;5.77;;;5.57;;
7154;SDS011;3619;53.784;10.440;2023-01-29T04:22:12;5.90;;;5.70;;
7154;SDS011;3619;53.784;10.440;2023-01-29T04:24:43;5.07;;;4.87;;
7154;SDS011;3619;53.784;10.440;2023-01-29T04:27:17;4.80;;;4.60;;
7154;SDS011;3619;53.784;10.440;2023-01-29T04:29:59;7.87;;;7.47;;
7154;SDS011;3619;53.784;10.440;2023-01-29T04:32:34;6.23;;;6.03;;
7154;SDS011;3619;53.784;10.440;2023-01-29T04:35:14;5.23;;;5.03;;
7154;SDS011;3619;53.784;10.440;2023-01-29T04:37:53;7.13;;;6.83;;
7154;SDS011;3619;53.784;10.440;2023-01-29T04:40:28;6.13;;;5.93;;
7154;SDS011;3619;53.784;10.440;2023-01-29T04:43:05;5.97;;;5.77;;
7154;SDS011;3619;53.784;10.440;2023-01-29T04:45:36;5.90;;;5.70;;
7154;SDS011;3619;53.784;10.440;2023-01-29T04:48:17;6.17;;;5.97;;
7154;SDS011;3619;53.784;10.440;2023-01-29T04:50:51;5.80;;;5.60;;
7154;SDS011;3619;53.784;10.440;2023-01-29T04:53:23;6.73;;;6.53;;
7154;SDS011;3619;53.784;10.440;2023-01-29T04:55:57;6.20;;;6.00;;
7154;SDS011;3619;53.784;10.440;2023-01-29T04:58:28;7.13;;;6.83;;
7154;SDS011;3619;53.784;10.440;2023-01-29T05:00:59;7.70;;;7.40;;
7154;SDS011;3619;53.784;10.440;2023-01-29T05:03:30;7.30;;;7.00;;
7154;SDS011;3619;53.784;10.440;2023-01-29T05:05:59;6.37;;;6.17;;
7154;SDS011;3619;53.784;10.440;2023-01-29T05:08:27;8.10;;;7.80;;
7154;SDS011;3619;53.784;10.440;2023-01-29T05:10:57;6.70;;;6.50;;
7154;SDS011;3619;53.784;10.440;2023-01-29T05:13:25;8.60;;;8.30;;
7154;SDS011;3619;53.784;10.440;2023-01-29T05:15:55;8.63;;;8.33;;
7154;SDS011;3619;53.784;10.440;2023-01-29T05:18:27;7.30;;;7.00;;
7154;SDS011;3619;53.784;10.440;2023-01-29T05:20:56;7.97;;;7.67;;
7154;SDS011;3619;53.784;10.440;2023-01-29T05:23:25;7.50;;;7.20;;
7154;SDS011;3619;53.784;10.440;2023-01-29T05:25:52;8.13;;;7.83;;
7154;SDS011;3619;53.784;10.440;2023-01-29T05:28:19;8.83;;;8.53;;
7154;SDS011;3619;53.784;10.440;2023-01-29T05:30:45;8.17;;;7.87;;
7154;SDS011;3619;53.784;10.440;2023-01-29T05:33:14;9.33;;;9.03;;
7154;SDS011;3619;53.784;10.440;2023-01-29T05:35:43;7.90;;;7.60;;
7154;SDS011;3619;53.784;10.440;2023-01-29T05:38:10;9.03;;;8.73;;
7154;SDS011;3619;53.784;10.440;2023-01-29T05:40:37;9.97;;;9.57;;
7154;SDS011;3619;53.784;10.440;2023-01-29T05:43:04;10.17;;;9.77;;
7154;SDS011;3619;53.784;10.440;2023-01-29T05:45:39;11.13;;;10.73;;
7154;SDS011;3619;53.784;10.440;2023-01-29T05:48:06;9.67;;;9.27;;
7154;SDS011;3619;53.784;10.440;2023-01-29T05:50:32;8.63;;;8.33;;
7154;SDS011;3619;53.784;10.440;2023-01-29T05:53:01;8.83;;;8.53;;
7154;SDS011;3619;53.784;10.440;2023-01-29T05:55:27;10.43;;;10.03;;
7154;SDS011;3619;53.784;10.440;2023-01-29T05:57:54;9.30;;;9.00;;
7154;SDS011;3619;53.784;10.440;2023-01-29T06:00:21;11.13;;;10.73;;
7154;SDS011;3619;53.784;10.440;2023-01-29T06:02:49;9.87;;;9.47;;
7154;SDS011;3619;53.784;10.440;2023-01-29T06:05:15;10.03;;;9.63;;
7154;SDS011;3619;53.784;10.440;2023-01-29T06:07:42;10.53;;;10.13;;
7154;SDS011;3619;53.784;10.440;2023-01-29T06:10:12;9.43;;;9.13;;
7154;SDS011;3619;53.784;10.440;2023-01-29T06:12:41;9.40;;;9.10;;
7154;SDS011;3619;53.784;10.440;2023-01-29T06:15:08;12.10;;;11.70;;
7154;SDS011;3619;53.784;10.440;2023-01-29T06:17:36;11.53;;;11.13;;
7154;SDS011;3619;53.784;10.440;2023-01-29T06:20:03;12.37;;;11.87;;
7154;SDS011;3619;53.784;10.440;2023-01-29T06:22:31;10.10;;;9.70;;
7154;SDS011;3619;53.784;10.440;2023-01-29T06:24:58;10.30;;;9.90;;
7154;SDS011;3619;53.784;10.440;2023-01-29T06:27:26;10.67;;;10.27;;
7154;SDS011;3619;53.784;10.440;2023-01-29T06:29:53;10.23;;;9.83;;
7154;SDS011;3619;53.784;10.440;2023-01-29T06:32:20;10.30;;;9.90;;
7154;SDS011;3619;53.784;10.440;2023-01-29T06:34:47;10.43;;;10.03;;
7154;SDS011;3619;53.784;10.440;2023-01-29T06:37:14;11.80;;;11.40;;
7154;SDS011;3619;53.784;10.440;2023-01-29T06:39:41;12.03;;;11.63;;
7154;SDS011;3619;53.784;10.440;2023-01-29T06:42:08;11.40;;;11.00;;
7154;SDS011;3619;53.784;10.440;2023-01-29T06:44:36;11.27;;;10.87;;
7154;SDS011;3619;53.784;10.440;2023-01-29T06:47:03;12.27;;;11.77;;
7154;SDS011;3619;53.784;10.440;2023-01-29T06:49:31;11.07;;;10.67;;
7154;SDS011;3619;53.784;10.440;2023-01-29T06:51:58;12.17;;;11.70;;
7154;SDS011;3619;53.784;10.440;2023-01-29T06:54:24;16.20;;;15.60;;
7154;SDS011;3619;53.784;10.440;2023-01-29T06:56:51;15.50;;;14.70;;
7154;SDS011;3619;53.784;10.440;2023-01-29T06:59:18;15.07;;;14.47;;
7154;SDS011;3619;53.784;10.440;2023-01-29T07:01:46;14.30;;;13.80;;
7154;SDS011;3619;53.784;10.440;2023-01-29T07:04:13;14.00;;;13.50;;
7154;SDS011;3619;53.784;10.440;2023-01-29T07:06:39;15.40;;;14.80;;
7154;SDS011;3619;53.784;10.440;2023-01-29T07:09:06;14.43;;;13.93;;
7154;SDS011;3619;53.784;10.440;2023-01-29T07:11:33;16.30;;;15.70;;
7154;SDS011;3619;53.784;10.440;2023-01-29T07:14:02;14.47;;;13.97;;
7154;SDS011;3619;53.784;10.440;2023-01-29T07:16:29;16.57;;;15.97;;
7154;SDS011;3619;53.784;10.440;2023-01-29T07:18:57;18.27;;;17.57;;
7154;SDS011;3619;53.784;10.440;2023-01-29T07:21:24;18.43;;;17.73;;
7154;SDS011;3619;53.784;10.440;2023-01-29T07:23:51;16.60;;;16.00;;
7154;SDS011;3619;53.784;10.440;2023-01-29T07:26:17;16.67;;;16.07;;
7154;SDS011;3619;53.784;10.440;2023-01-29T07:28:44;18.20;;;17.50;;
7154;SDS011;3619;53.784;10.440;2023-01-29T07:31:11;17.10;;;16.50;;
7154;SDS011;3619;53.784;10.440;2023-01-29T07:33:39;17.10;;;16.50;;
7154;SDS011;3619;53.784;10.440;2023-01-29T07:36:09;16.87;;;16.27;;
7154;SDS011;3619;53.784;10.440;2023-01-29T07:38:36;17.97;;;17.27;;
7154;SDS011;3619;53.784;10.440;2023-01-29T07:41:03;15.83;;;15.23;;
7154;SDS011;3619;53.784;10.440;2023-01-29T07:43:30;17.57;;;16.87;;
7154;SDS011;3619;53.784;10.440;2023-01-29T07:46:00;14.70;;;14.20;;
7154;SDS011;3619;53.784;10.440;2023-01-29T07:48:27;17.33;;;16.70;;
7154;SDS011;3619;53.784;10.440;2023-01-29T07:50:54;16.10;;;15.50;;
7154;SDS011;3619;53.784;10.440;2023-01-29T07:53:23;17.30;;;16.67;;
7154;SDS011;3619;53.784;10.440;2023-01-29T07:55:50;18.30;;;17.60;;
7154;SDS011;3619;53.784;10.440;2023-01-29T07:58:17;16.47;;;15.87;;
7154;SDS011;3619;53.784;10.440;2023-01-29T08:00:44;18.33;;;17.63;;
7154;SDS011;3619;53.784;10.440;2023-01-29T08:03:12;19.00;;;18.30;;
7154;SDS011;3619;53.784;10.440;2023-01-29T08:05:40;18.50;;;17.80;;
7154;SDS011;3619;53.784;10.440;2023-01-29T08:08:07;19.33;;;18.63;;
7154;SDS011;3619;53.784;10.440;2023-01-29T08:10:35;17.47;;;16.77;;
7154;SDS011;3619;53.784;10.440;2023-01-29T08:13:03;16.63;;;16.03;;
7154;SDS011;3619;53.784;10.440;2023-01-29T08:15:31;15.97;;;15.37;;
7154;SDS011;3619;53.784;10.440;2023-01-29T08:17:58;18.40;;;17.70;;
7154;SDS011;3619;53.784;10.440;2023-01-29T08:20:26;16.53;;;15.93;;
7154;SDS011;3619;53.784;10.440;2023-01-29T08:22:57;18.73;;;18.03;;
7154;SDS011;3619;53.784;10.440;2023-01-29T08:25:24;17.40;;;16.73;;
7154;SDS011;3619;53.784;10.440;2023-01-29T08:27:52;18.83;;;18.13;;
7154;SDS011;3619;53.784;10.440;2023-01-29T08:30:19;21.10;;;20.30;;
7154;SDS011;3619;53.784;10.440;2023-01-29T08:32:46;19.50;;;18.80;;
7154;SDS011;3619;53.784;10.440;2023-01-29T08:35:12;17.83;;;17.13;;
7154;SDS011;3619;53.784;10.440;2023-01-29T08:37:39;18.30;;;17.60;;
7154;SDS011;3619;53.784;10.440;2023-01-29T08:40:07;21.67;;;20.87;;
7154;SDS011;3619;53.784;10.440;2023-01-29T08:42:36;20.53;;;19.73;;
7154;SDS011;3619;53.784;10.440;2023-01-29T08:45:07;22.53;;;21.70;;
7154;SDS011;3619;53.784;10.440;2023-01-29T08:47:35;22.07;;;21.27;;
7154;SDS011;3619;53.784;10.440;2023-01-29T08:50:02;23.53;;;22.63;;
7154;SDS011;3619;53.784;10.440;2023-01-29T08:52:29;23.57;;;22.67;;
7154;SDS011;3619;53.784;10.440;2023-01-29T08:54:57;21.80;;;21.00;;
7154;SDS011;3619;53.784;10.440;2023-01-29T08:57:24;23.50;;;22.60;;
7154;SDS011;3619;53.784;10.440;2023-01-29T08:59:51;24.37;;;23.47;;
7154;SDS011;3619;53.784;10.440;2023-01-29T09:02:19;23.97;;;23.07;;
7154;SDS011;3619;53.784;10.440;2023-01-29T09:04:46;23.20;;;22.30;;
7154;SDS011;3619;53.784;10.440;2023-01-29T09:07:13;24.77;;;23.77;;
7154;SDS011;3619;53.784;10.440;2023-01-29T09:09:40;23.80;;;22.90;;
7154;SDS011;3619;53.784;10.440;2023-01-29T09:12:07;25.77;;;24.73;;
7154;SDS011;3619;53.784;10.440;2023-01-29T09:14:34;22.37;;;21.57;;
7154;SDS011;3619;53.784;10.440;2023-01-29T09:17:02;20.53;;;19.73;;
7154;SDS011;3619;53.784;10.440;2023-01-29T09:19:30;21.47;;;20.67;;
7154;SDS011;3619;53.784;10.440;2023-01-29T09:21:57;23.13;;;22.23;;
7154;SDS011;3619;53.784;10.440;2023-01-29T09:24:24;21.47;;;20.67;;
7154;SDS011;3619;53.784;10.440;2023-01-29T09:26:51;20.27;;;19.47;;
7154;SDS011;3619;53.784;10.440;2023-01-29T09:29:17;21.23;;;20.43;;
7154;SDS011;3619;53.784;10.440;2023-01-29T09:31:45;22.60;;;21.70;;
7154;SDS011;3619;53.784;10.440;2023-01-29T09:34:15;27.00;;;26.00;;
7154;SDS011;3619;53.784;10.440;2023-01-29T09:36:43;25.90;;;24.90;;
7154;SDS011;3619;53.784;10.440;2023-01-29T09:39:10;25.67;;;24.67;;
7154;SDS011;3619;53.784;10.440;2023-01-29T09:41:41;23.67;;;22.77;;
7154;SDS011;3619;53.784;10.440;2023-01-29T09:44:16;21.43;;;20.63;;
7154;SDS011;3619;53.784;10.440;2023-01-29T09:46:49;20.80;;;20.00;;
7154;SDS011;3619;53.784;10.440;2023-01-29T09:49:20;18.37;;;17.67;;
7154;SDS011;3619;53.784;10.440;2023-01-29T09:51:52;19.70;;;19.00;;
7154;SDS011;3619;53.784;10.440;2023-01-29T09:54:23;20.97;;;20.17;;
7154;SDS011;3619;53.784;10.440;2023-01-29T09:56:54;19.97;;;19.17;;
7154;SDS011;3619;53.784;10.440;2023-01-29T09:59:22;17.47;;;16.80;;
7154;SDS011;3619;53.784;10.440;2023-01-29T10:01:54;19.70;;;19.00;;
7154;SDS011;3619;53.784;10.440;2023-01-29T10:04:33;20.37;;;19.57;;
7154;SDS011;3619;53.784;10.440;2023-01-29T10:10:30;17.93;;;17.23;;
7154;SDS011;3619;53.784;10.440;2023-01-29T10:13:06;19.37;;;18.67;;
7154;SDS011;3619;53.784;10.440;2023-01-29T10:15:53;17.13;;;16.53;;
7154;SDS011;3619;53.784;10.440;2023-01-29T10:21:38;18.97;;;18.27;;
7154;SDS011;3619;53.784;10.440;2023-01-29T10:24:21;17.20;;;16.60;;
7154;SDS011;3619;53.784;10.440;2023-01-29T10:26:57;16.23;;;15.63;;
7154;SDS011;3619;53.784;10.440;2023-01-29T10:29:24;14.87;;;14.30;;
7154;SDS011;3619;53.784;10.440;2023-01-29T10:31:53;14.30;;;13.80;;
7154;SDS011;3619;53.784;10.440;2023-01-29T10:34:29;15.13;;;14.53;;
7154;SDS011;3619;53.784;10.440;2023-01-29T10:37:01;15.70;;;15.10;;
7154;SDS011;3619;53.784;10.440;2023-01-29T10:39:43;18.00;;;17.30;;
7154;SDS011;3619;53.784;10.440;2023-01-29T10:42:16;18.43;;;17.73;;
7154;SDS011;3619;53.784;10.440;2023-01-29T10:44:56;15.67;;;15.07;;
7154;SDS011;3619;53.784;10.440;2023-01-29T10:50:34;16.70;;;16.10;;
7154;SDS011;3619;53.784;10.440;2023-01-29T10:53:15;18.13;;;17.43;;
7154;SDS011;3619;53.784;10.440;2023-01-29T10:55:57;16.03;;;15.43;;
7154;SDS011;3619;53.784;10.440;2023-01-29T10:58:33;16.90;;;16.30;;
7154;SDS011;3619;53.784;10.440;2023-01-29T11:01:04;17.00;;;16.40;;
7154;SDS011;3619;53.784;10.440;2023-01-29T11:03:31;17.80;;;17.10;;
7154;SDS011;3619;53.784;10.440;2023-01-29T11:06:03;16.13;;;15.53;;
7154;SDS011;3619;53.784;10.440;2023-01-29T11:08:38;19.40;;;18.47;;
7154;SDS011;3619;53.784;10.440;2023-01-29T11:11:11;16.30;;;15.70;;
7154;SDS011;3619;53.784;10.440;2023-01-29T11:13:40;17.00;;;16.40;;
7154;SDS011;3619;53.784;10.440;2023-01-29T11:16:09;17.73;;;17.03;;
7154;SDS011;3619;53.784;10.440;2023-01-29T11:18:49;14.27;;;13.77;;
7154;SDS011;3619;53.784;10.440;2023-01-29T11:21:18;14.87;;;14.30;;
7154;SDS011;3619;53.784;10.440;2023-01-29T11:23:45;16.40;;;15.80;;
7154;SDS011;3619;53.784;10.440;2023-01-29T11:26:16;16.13;;;15.53;;
7154;SDS011;3619;53.784;10.440;2023-01-29T11:28:46;15.70;;;15.10;;
7154;SDS011;3619;53.784;10.440;2023-01-29T11:31:17;15.40;;;14.80;;
7154;SDS011;3619;53.784;10.440;2023-01-29T11:33:47;15.97;;;15.37;;
7154;SDS011;3619;53.784;10.440;2023-01-29T11:36:21;14.70;;;14.17;;
7154;SDS011;3619;53.784;10.440;2023-01-29T11:39:04;14.90;;;14.30;;
7154;SDS011;3619;53.784;10.440;2023-01-29T11:41:48;15.20;;;14.60;;
7154;SDS011;3619;53.784;10.440;2023-01-29T11:44:18;15.50;;;14.90;;
7154;SDS011;3619;53.784;10.440;2023-01-29T11:46:53;18.80;;;18.10;;
7154;SDS011;3619;53.784;10.440;2023-01-29T11:49:30;17.47;;;16.80;;
7154;SDS011;3619;53.784;10.440;2023-01-29T11:51:59;16.87;;;16.27;;
7154;SDS011;3619;53.784;10.440;2023-01-29T11:54:31;18.83;;;18.13;;
7154;SDS011;3619;53.784;10.440;2023-01-29T11:57:04;17.90;;;17.20;;
7154;SDS011;3619;53.784;10.440;2023-01-29T11:59:48;17.00;;;16.40;;
7154;SDS011;3619;53.784;10.440;2023-01-29T12:02:19;16.60;;;16.00;;
7154;SDS011;3619;53.784;10.440;2023-01-29T12:04:52;15.53;;;14.93;;
7154;SDS011;3619;53.784;10.440;2023-01-29T12:07:20;16.43;;;15.83;;
7154;SDS011;3619;53.784;10.440;2023-01-29T12:09:51;20.37;;;19.57;;
7154;SDS011;3619;53.784;10.440;2023-01-29T12:12:28;15.60;;;15.00;;
7154;SDS011;3619;53.784;10.440;2023-01-29T12:15:13;18.30;;;17.23;;
7154;SDS011;3619;53.784;10.440;2023-01-29T12:17:44;16.10;;;15.50;;
7154;SDS011;3619;53.784;10.440;2023-01-29T12:20:18;17.63;;;16.93;;
7154;SDS011;3619;53.784;10.440;2023-01-29T12:22:49;17.07;;;16.47;;
7154;SDS011;3619;53.784;10.440;2023-01-29T12:25:24;17.57;;;16.87;;
7154;SDS011;3619;53.784;10.440;2023-01-29T12:28:05;15.50;;;14.90;;
7154;SDS011;3619;53.784;10.440;2023-01-29T12:30:42;16.23;;;15.63;;
7154;SDS011;3619;53.784;10.440;2023-01-29T12:33:19;15.57;;;14.97;;
7154;SDS011;3619;53.784;10.440;2023-01-29T12:35:53;15.53;;;14.93;;
7154;SDS011;3619;53.784;10.440;2023-01-29T12:38:27;19.73;;;18.83;;
7154;SDS011;3619;53.784;10.440;2023-01-29T12:40:54;15.33;;;14.73;;
7154;SDS011;3619;53.784;10.440;2023-01-29T12:43:28;16.00;;;15.40;;
7154;SDS011;3619;53.784;10.440;2023-01-29T12:46:00;15.80;;;15.20;;
7154;SDS011;3619;53.784;10.440;2023-01-29T12:48:29;17.40;;;16.73;;
7154;SDS011;3619;53.784;10.440;2023-01-29T12:50:59;15.60;;;15.00;;
7154;SDS011;3619;53.784;10.440;2023-01-29T12:53:30;15.53;;;14.93;;
7154;SDS011;3619;53.784;10.440;2023-01-29T12:56:01;18.07;;;17.37;;
7154;SDS011;3619;53.784;10.440;2023-01-29T12:58:39;18.97;;;18.27;;
7154;SDS011;3619;53.784;10.440;2023-01-29T13:01:11;19.23;;;18.53;;
7154;SDS011;3619;53.784;10.440;2023-01-29T13:03:51;16.20;;;15.60;;
7154;SDS011;3619;53.784;10.440;2023-01-29T13:06:24;16.30;;;15.70;;
7154;SDS011;3619;53.784;10.440;2023-01-29T13:08:54;20.63;;;19.83;;
7154;SDS011;3619;53.784;10.440;2023-01-29T13:11:25;19.83;;;19.10;;
7154;SDS011;3619;53.784;10.440;2023-01-29T13:14:00;18.53;;;17.83;;
7154;SDS011;3619;53.784;10.440;2023-01-29T13:16:32;21.97;;;21.17;;
7154;SDS011;3619;53.784;10.440;2023-01-29T13:19:08;20.83;;;20.03;;
7154;SDS011;3619;53.784;10.440;2023-01-29T13:21:44;20.80;;;20.00;;
7154;SDS011;3619;53.784;10.440;2023-01-29T13:24:13;21.07;;;20.27;;
7154;SDS011;3619;53.784;10.440;2023-01-29T13:26:43;21.80;;;21.00;;
7154;SDS011;3619;53.784;10.440;2023-01-29T13:29:15;20.73;;;19.93;;
7154;SDS011;3619;53.784;10.440;2023-01-29T13:31:47;21.30;;;20.50;;
7154;SDS011;3619;53.784;10.440;2023-01-29T13:34:18;25.13;;;24.17;;
7154;SDS011;3619;53.784;10.440;2023-01-29T13:36:49;21.90;;;21.10;;
7154;SDS011;3619;53.784;10.440;2023-01-29T13:39:19;24.10;;;23.20;;
7154;SDS011;3619;53.784;10.440;2023-01-29T13:41:49;29.17;;;28.07;;
7154;SDS011;3619;53.784;10.440;2023-01-29T13:44:20;24.20;;;23.30;;
7154;SDS011;3619;53.784;10.440;2023-01-29T13:46:53;28.90;;;27.80;;
7154;SDS011;3619;53.784;10.440;2023-01-29T13:49:23;23.83;;;22.93;;
7154;SDS011;3619;53.784;10.440;2023-01-29T13:51:54;28.07;;;26.97;;
7154;SDS011;3619;53.784;10.440;2023-01-29T13:54:23;30.93;;;29.73;;
7154;SDS011;3619;53.784;10.440;2023-01-29T13:56:59;29.60;;;28.50;;
7154;SDS011;3619;53.784;10.440;2023-01-29T13:59:51;28.40;;;27.30;;
7154;SDS011;3619;53.784;10.440;2023-01-29T14:02:21;29.10;;;28.00;;
7154;SDS011;3619;53.784;10.440;2023-01-29T14:04:49;32.27;;;31.07;;
7154;SDS011;3619;53.784;10.440;2023-01-29T14:10:14;31.07;;;29.87;;
7154;SDS011;3619;53.784;10.440;2023-01-29T14:12:49;30.77;;;29.57;;
7154;SDS011;3619;53.784;10.440;2023-01-29T14:15:31;31.57;;;30.37;;
7154;SDS011;3619;53.784;10.440;2023-01-29T14:18:02;30.77;;;29.57;;
7154;SDS011;3619;53.784;10.440;2023-01-29T14:20:48;27.83;;;26.77;;
7154;SDS011;3619;53.784;10.440;2023-01-29T14:23:28;29.07;;;27.97;;
7154;SDS011;3619;53.784;10.440;2023-01-29T14:25:59;30.50;;;29.30;;
7154;SDS011;3619;53.784;10.440;2023-01-29T14:28:33;27.30;;;26.30;;
7154;SDS011;3619;53.784;10.440;2023-01-29T14:31:02;27.50;;;26.43;;
7154;SDS011;3619;53.784;10.440;2023-01-29T14:33:32;29.90;;;28.80;;
7154;SDS011;3619;53.784;10.440;2023-01-29T14:36:05;28.77;;;27.67;;
7154;SDS011;3619;53.784;10.440;2023-01-29T14:38:35;28.60;;;27.50;;
7154;SDS011;3619;53.784;10.440;2023-01-29T14:41:06;28.70;;;27.60;;
7154;SDS011;3619;53.784;10.440;2023-01-29T14:43:39;31.80;;;30.60;;
7154;SDS011;3619;53.784;10.440;2023-01-29T14:52:16;30.33;;;29.20;;
7154;SDS011;3619;53.784;10.440;2023-01-29T14:54:46;28.00;;;26.90;;
7154;SDS011;3619;53.784;10.440;2023-01-29T14:57:15;29.23;;;28.13;;
7154;SDS011;3619;53.784;10.440;2023-01-29T14:59:46;26.80;;;25.80;;
7154;SDS011;3619;53.784;10.440;2023-01-29T15:02:21;32.47;;;31.27;;
7154;SDS011;3619;53.784;10.440;2023-01-29T15:04:53;29.30;;;28.20;;
7154;SDS011;3619;53.784;10.440;2023-01-29T15:07:24;33.17;;;31.87;;
7154;SDS011;3619;53.784;10.440;2023-01-29T15:09:58;29.57;;;28.47;;
7154;SDS011;3619;53.784;10.440;2023-01-29T15:12:30;30.97;;;29.77;;
7154;SDS011;3619;53.784;10.440;2023-01-29T15:15:06;30.10;;;29.00;;
7154;SDS011;3619;53.784;10.440;2023-01-29T15:17:44;32.03;;;30.83;;
7154;SDS011;3619;53.784;10.440;2023-01-29T15:20:25;31.40;;;30.20;;
7154;SDS011;3619;53.784;10.440;2023-01-29T15:22:54;31.77;;;30.57;;
7154;SDS011;3619;53.784;10.440;2023-01-29T15:25:21;31.77;;;30.57;;
7154;SDS011;3619;53.784;10.440;2023-01-29T15:27:48;35.23;;;33.93;;
7154;SDS011;3619;53.784;10.440;2023-01-29T15:30:17;36.03;;;34.63;;
7154;SDS011;3619;53.784;10.440;2023-01-29T15:32:45;34.47;;;33.10;;